sensor_id;sensor_type;location;lat;lon;timestamp;pressure;altitude;pressure_sealevel;temperature;humidity
61357;BME280;47227;46.752;23.576;2024-02-15T00:01:46;96944.55;;;0.56;66.86
61357;BME280;47227;46.752;23.576;2024-02-15T00:04:14;96943.88;;;0.50;68.71
61357;BME280;47227;46.752;23.576;2024-02-15T00:06:43;96945.05;;;0.44;68.33
61357;BME280;47227;46.752;23.576;2024-02-15T00:09:12;96948.53;;;0.42;67.98
61357;BME280;47227;46.752;23.576;2024-02-15T00:11:40;96947.90;;;0.41;68.01
61357;BME280;47227;46.752;23.576;2024-02-15T00:14:09;96946.66;;;0.41;67.56
61357;BME280;47227;46.752;23.576;2024-02-15T00:16:38;96951.70;;;0.35;69.43
61357;BME280;47227;46.752;23.576;2024-02-15T00:19:06;96951.38;;;0.31;69.13
61357;BME280;47227;46.752;23.576;2024-02-15T00:21:35;96949.07;;;0.26;70.25
61357;BME280;47227;46.752;23.576;2024-02-15T00:24:04;96952.39;;;0.24;70.28
61357;BME280;47227;46.752;23.576;2024-02-15T00:26:33;96950.96;;;0.16;70.85
61357;BME280;47227;46.752;23.576;2024-02-15T00:29:02;96951.95;;;0.15;70.57
61357;BME280;47227;46.752;23.576;2024-02-15T00:31:30;96952.70;;;0.14;70.66
61357;BME280;47227;46.752;23.576;2024-02-15T00:33:58;96947.23;;;0.11;70.93
61357;BME280;47227;46.752;23.576;2024-02-15T00:36:28;96950.84;;;0.09;71.22
61357;BME280;47227;46.752;23.576;2024-02-15T00:38:57;96947.05;;;0.08;70.90
61357;BME280;47227;46.752;23.576;2024-02-15T00:41:26;96947.76;;;0.07;70.83
61357;BME280;47227;46.752;23.576;2024-02-15T00:43:56;96946.98;;;0.05;71.12
61357;BME280;47227;46.752;23.576;2024-02-15T00:46:24;96949.56;;;0.07;70.27
61357;BME280;47227;46.752;23.576;2024-02-15T00:48:57;96945.98;;;0.05;70.89
61357;BME280;47227;46.752;23.576;2024-02-15T00:51:26;96946.12;;;0.05;71.19
61357;BME280;47227;46.752;23.576;2024-02-15T00:53:54;96945.08;;;0.07;70.94
61357;BME280;47227;46.752;23.576;2024-02-15T00:56:24;96944.41;;;0.07;70.21
61357;BME280;47227;46.752;23.576;2024-02-15T00:58:53;96941.36;;;0.04;70.62
61357;BME280;47227;46.752;23.576;2024-02-15T01:01:21;96938.67;;;0.07;70.14
61357;BME280;47227;46.752;23.576;2024-02-15T01:03:50;96937.76;;;0.11;69.77
61357;BME280;47227;46.752;23.576;2024-02-15T01:06:19;96938.02;;;0.16;69.55
61357;BME280;47227;46.752;23.576;2024-02-15T01:08:47;96940.40;;;0.21;69.42
61357;BME280;47227;46.752;23.576;2024-02-15T01:11:16;96939.65;;;0.27;69.35
61357;BME280;47227;46.752;23.576;2024-02-15T01:13:44;96942.34;;;0.32;69.40
61357;BME280;47227;46.752;23.576;2024-02-15T01:16:13;96939.11;;;0.36;68.95
61357;BME280;47227;46.752;23.576;2024-02-15T01:18:41;96941.54;;;0.41;69.07
61357;BME280;47227;46.752;23.576;2024-02-15T01:21:10;96944.64;;;0.48;69.13
61357;BME280;47227;46.752;23.576;2024-02-15T01:23:39;96944.05;;;0.53;68.87
61357;BME280;47227;46.752;23.576;2024-02-15T01:26:08;96940.87;;;0.57;68.77
61357;BME280;47227;46.752;23.576;2024-02-15T01:28:36;96943.15;;;0.61;68.53
61357;BME280;47227;46.752;23.576;2024-02-15T01:31:05;96942.71;;;0.63;68.30
61357;BME280;47227;46.752;23.576;2024-02-15T01:33:34;96945.00;;;0.65;68.53
61357;BME280;47227;46.752;23.576;2024-02-15T01:36:05;96943.23;;;0.65;68.37
61357;BME280;47227;46.752;23.576;2024-02-15T01:38:34;96944.63;;;0.63;68.17
61357;BME280;47227;46.752;23.576;2024-02-15T01:41:02;96943.56;;;0.60;68.26
61357;BME280;47227;46.752;23.576;2024-02-15T01:43:31;96944.33;;;0.55;68.07
61357;BME280;47227;46.752;23.576;2024-02-15T01:45:59;96947.48;;;0.50;68.16
61357;BME280;47227;46.752;23.576;2024-02-15T01:48:31;96950.01;;;0.44;68.07
61357;BME280;47227;46.752;23.576;2024-02-15T01:51:00;96949.16;;;0.37;68.10
61357;BME280;47227;46.752;23.576;2024-02-15T01:53:29;96948.59;;;0.32;68.43
61357;BME280;47227;46.752;23.576;2024-02-15T01:55:59;96948.10;;;0.27;68.44
61357;BME280;47227;46.752;23.576;2024-02-15T01:58:28;96951.27;;;0.19;68.44
61357;BME280;47227;46.752;23.576;2024-02-15T02:01:01;96947.13;;;0.13;68.48
61357;BME280;47227;46.752;23.576;2024-02-15T02:03:30;96949.14;;;0.07;68.40
61357;BME280;47227;46.752;23.576;2024-02-15T02:05:58;96949.13;;;0.04;68.50
61357;BME280;47227;46.752;23.576;2024-02-15T02:08:29;96948.93;;;-0.00;68.69
61357;BME280;47227;46.752;23.576;2024-02-15T02:10:57;96948.67;;;-0.06;68.97
61357;BME280;47227;46.752;23.576;2024-02-15T02:13:26;96953.16;;;-0.09;68.61
61357;BME280;47227;46.752;23.576;2024-02-15T02:15:56;96955.35;;;-0.12;68.61
61357;BME280;47227;46.752;23.576;2024-02-15T02:18:25;96951.91;;;-0.17;69.00
61357;BME280;47227;46.752;23.576;2024-02-15T02:20:53;96957.98;;;-0.21;69.34
61357;BME280;47227;46.752;23.576;2024-02-15T02:23:26;96963.48;;;-0.26;69.49
61357;BME280;47227;46.752;23.576;2024-02-15T02:25:55;96963.91;;;-0.30;69.48
61357;BME280;47227;46.752;23.576;2024-02-15T02:28:24;96964.59;;;-0.33;69.81
61357;BME280;47227;46.752;23.576;2024-02-15T02:30:53;96961.68;;;-0.38;69.92
61357;BME280;47227;46.752;23.576;2024-02-15T02:33:21;96965.91;;;-0.42;70.32
61357;BME280;47227;46.752;23.576;2024-02-15T02:35:51;96966.27;;;-0.48;70.78
61357;BME280;47227;46.752;23.576;2024-02-15T02:38:20;96966.29;;;-0.50;70.56
61357;BME280;47227;46.752;23.576;2024-02-15T02:40:48;96967.48;;;-0.49;70.83
61357;BME280;47227;46.752;23.576;2024-02-15T02:43:16;96967.32;;;-0.51;71.02
61357;BME280;47227;46.752;23.576;2024-02-15T02:45:45;96972.15;;;-0.50;71.01
61357;BME280;47227;46.752;23.576;2024-02-15T02:48:13;96971.80;;;-0.46;70.90
61357;BME280;47227;46.752;23.576;2024-02-15T02:50:42;96975.15;;;-0.42;70.90
61357;BME280;47227;46.752;23.576;2024-02-15T02:53:10;96973.66;;;-0.38;70.81
61357;BME280;47227;46.752;23.576;2024-02-15T02:55:41;96970.30;;;-0.34;70.88
61357;BME280;47227;46.752;23.576;2024-02-15T02:58:10;96970.70;;;-0.29;70.46
61357;BME280;47227;46.752;23.576;2024-02-15T03:00:39;96971.86;;;-0.24;70.55
61357;BME280;47227;46.752;23.576;2024-02-15T03:03:08;96974.73;;;-0.20;70.58
61357;BME280;47227;46.752;23.576;2024-02-15T03:05:37;96971.31;;;-0.18;70.44
61357;BME280;47227;46.752;23.576;2024-02-15T03:08:09;96971.35;;;-0.19;70.43
61357;BME280;47227;46.752;23.576;2024-02-15T03:10:37;96971.29;;;-0.20;70.47
61357;BME280;47227;46.752;23.576;2024-02-15T03:13:06;96972.92;;;-0.21;70.24
61357;BME280;47227;46.752;23.576;2024-02-15T03:15:37;96975.39;;;-0.23;70.08
61357;BME280;47227;46.752;23.576;2024-02-15T03:18:05;96975.60;;;-0.25;70.00
61357;BME280;47227;46.752;23.576;2024-02-15T03:20:38;96973.92;;;-0.29;69.89
61357;BME280;47227;46.752;23.576;2024-02-15T03:23:07;96975.31;;;-0.32;69.80
61357;BME280;47227;46.752;23.576;2024-02-15T03:25:35;96975.23;;;-0.36;69.94
61357;BME280;47227;46.752;23.576;2024-02-15T03:28:05;96977.15;;;-0.41;70.04
61357;BME280;47227;46.752;23.576;2024-02-15T03:30:33;96977.72;;;-0.47;69.80
61357;BME280;47227;46.752;23.576;2024-02-15T03:33:03;96980.96;;;-0.52;69.93
61357;BME280;47227;46.752;23.576;2024-02-15T03:35:34;96983.58;;;-0.57;70.17
61357;BME280;47227;46.752;23.576;2024-02-15T03:38:03;96977.59;;;-0.62;70.01
61357;BME280;47227;46.752;23.576;2024-02-15T03:40:31;96981.77;;;-0.66;70.44
61357;BME280;47227;46.752;23.576;2024-02-15T03:43:00;96978.46;;;-0.72;70.95
61357;BME280;47227;46.752;23.576;2024-02-15T03:45:29;96981.39;;;-0.77;70.78
61357;BME280;47227;46.752;23.576;2024-02-15T03:47:58;96988.04;;;-0.84;71.14
61357;BME280;47227;46.752;23.576;2024-02-15T03:50:27;96993.07;;;-0.89;71.78
61357;BME280;47227;46.752;23.576;2024-02-15T03:52:58;96991.52;;;-0.94;71.85
61357;BME280;47227;46.752;23.576;2024-02-15T03:55:28;96987.88;;;-0.97;71.66
61357;BME280;47227;46.752;23.576;2024-02-15T03:57:56;96988.06;;;-0.99;71.41
61357;BME280;47227;46.752;23.576;2024-02-15T04:00:26;96985.25;;;-1.02;71.49
61357;BME280;47227;46.752;23.576;2024-02-15T04:02:54;96981.83;;;-1.04;71.51
61357;BME280;47227;46.752;23.576;2024-02-15T04:05:23;96986.86;;;-1.04;71.68
61357;BME280;47227;46.752;23.576;2024-02-15T04:07:52;96985.02;;;-1.04;71.45
61357;BME280;47227;46.752;23.576;2024-02-15T04:10:22;96990.48;;;-1.04;71.46
61357;BME280;47227;46.752;23.576;2024-02-15T04:12:50;96998.57;;;-1.04;71.76
61357;BME280;47227;46.752;23.576;2024-02-15T04:15:19;96996.73;;;-1.05;71.63
61357;BME280;47227;46.752;23.576;2024-02-15T04:17:48;96998.50;;;-1.05;71.63
61357;BME280;47227;46.752;23.576;2024-02-15T04:20:17;96999.30;;;-1.06;71.95
61357;BME280;47227;46.752;23.576;2024-02-15T04:22:46;96995.85;;;-1.08;72.00
61357;BME280;47227;46.752;23.576;2024-02-15T04:25:16;96996.98;;;-1.11;72.28
61357;BME280;47227;46.752;23.576;2024-02-15T04:27:46;96997.05;;;-1.13;71.90
61357;BME280;47227;46.752;23.576;2024-02-15T04:30:18;96999.44;;;-1.15;72.42
61357;BME280;47227;46.752;23.576;2024-02-15T04:32:47;96999.23;;;-1.16;71.98
61357;BME280;47227;46.752;23.576;2024-02-15T04:35:16;97003.67;;;-1.18;72.40
61357;BME280;47227;46.752;23.576;2024-02-15T04:37:44;97002.70;;;-1.20;72.37
61357;BME280;47227;46.752;23.576;2024-02-15T04:40:15;97001.64;;;-1.19;72.22
61357;BME280;47227;46.752;23.576;2024-02-15T04:42:46;97000.16;;;-1.19;72.58
61357;BME280;47227;46.752;23.576;2024-02-15T04:45:15;96998.38;;;-1.16;72.66
61357;BME280;47227;46.752;23.576;2024-02-15T04:47:44;97001.73;;;-1.12;72.59
61357;BME280;47227;46.752;23.576;2024-02-15T04:50:18;97006.50;;;-1.07;72.42
61357;BME280;47227;46.752;23.576;2024-02-15T04:52:47;97002.85;;;-1.01;72.36
61357;BME280;47227;46.752;23.576;2024-02-15T04:55:17;97003.08;;;-0.97;72.17
61357;BME280;47227;46.752;23.576;2024-02-15T04:57:46;97006.05;;;-0.92;72.24
61357;BME280;47227;46.752;23.576;2024-02-15T05:00:18;97006.98;;;-0.88;72.01
61357;BME280;47227;46.752;23.576;2024-02-15T05:02:50;97008.36;;;-0.81;71.86
61357;BME280;47227;46.752;23.576;2024-02-15T05:05:20;97007.42;;;-0.77;71.86
61357;BME280;47227;46.752;23.576;2024-02-15T05:07:48;97005.83;;;-0.73;71.81
61357;BME280;47227;46.752;23.576;2024-02-15T05:10:20;97004.26;;;-0.69;71.76
61357;BME280;47227;46.752;23.576;2024-02-15T05:12:48;97002.73;;;-0.66;71.67
61357;BME280;47227;46.752;23.576;2024-02-15T05:15:17;97012.77;;;-0.62;71.47
61357;BME280;47227;46.752;23.576;2024-02-15T05:17:47;97013.59;;;-0.60;71.32
61357;BME280;47227;46.752;23.576;2024-02-15T05:20:16;97015.36;;;-0.60;71.31
61357;BME280;47227;46.752;23.576;2024-02-15T05:22:45;97017.91;;;-0.62;71.24
61357;BME280;47227;46.752;23.576;2024-02-15T05:25:19;97019.70;;;-0.64;71.27
61357;BME280;47227;46.752;23.576;2024-02-15T05:27:55;97021.20;;;-0.67;71.02
61357;BME280;47227;46.752;23.576;2024-02-15T05:30:25;97024.06;;;-0.72;71.10
61357;BME280;47227;46.752;23.576;2024-02-15T05:32:54;97027.01;;;-0.77;70.97
61357;BME280;47227;46.752;23.576;2024-02-15T05:35:25;97028.25;;;-0.84;71.40
61357;BME280;47227;46.752;23.576;2024-02-15T05:37:55;97027.77;;;-0.91;71.39
61357;BME280;47227;46.752;23.576;2024-02-15T05:40:24;97028.14;;;-1.00;71.55
61357;BME280;47227;46.752;23.576;2024-02-15T05:42:56;97026.68;;;-1.07;71.90
61357;BME280;47227;46.752;23.576;2024-02-15T05:47:55;97027.05;;;-1.21;72.37
61357;BME280;47227;46.752;23.576;2024-02-15T05:50:24;97024.48;;;-1.26;72.36
61357;BME280;47227;46.752;23.576;2024-02-15T05:52:55;97024.14;;;-1.32;72.46
61357;BME280;47227;46.752;23.576;2024-02-15T05:55:25;97026.95;;;-1.36;72.71
61357;BME280;47227;46.752;23.576;2024-02-15T05:57:54;97028.58;;;-1.40;73.01
61357;BME280;47227;46.752;23.576;2024-02-15T06:00:23;97026.77;;;-1.42;72.72
61357;BME280;47227;46.752;23.576;2024-02-15T06:02:51;97032.95;;;-1.44;72.77
61357;BME280;47227;46.752;23.576;2024-02-15T06:05:21;97035.45;;;-1.45;72.59
61357;BME280;47227;46.752;23.576;2024-02-15T06:07:50;97039.56;;;-1.47;72.88
61357;BME280;47227;46.752;23.576;2024-02-15T06:10:19;97037.42;;;-1.50;72.90
61357;BME280;47227;46.752;23.576;2024-02-15T06:12:47;97038.38;;;-1.51;72.77
61357;BME280;47227;46.752;23.576;2024-02-15T06:15:16;97039.14;;;-1.52;72.78
61357;BME280;47227;46.752;23.576;2024-02-15T06:17:46;97037.12;;;-1.52;72.88
61357;BME280;47227;46.752;23.576;2024-02-15T06:20:16;97038.98;;;-1.52;73.05
61357;BME280;47227;46.752;23.576;2024-02-15T06:22:51;97038.44;;;-1.51;72.89
61357;BME280;47227;46.752;23.576;2024-02-15T06:25:20;97037.35;;;-1.53;73.10
61357;BME280;47227;46.752;23.576;2024-02-15T06:27:50;97043.45;;;-1.52;73.33
61357;BME280;47227;46.752;23.576;2024-02-15T06:30:26;97046.93;;;-1.52;73.45
61357;BME280;47227;46.752;23.576;2024-02-15T06:33:14;97046.27;;;-1.54;73.48
61357;BME280;47227;46.752;23.576;2024-02-15T06:36:08;97049.98;;;-1.54;73.36
61357;BME280;47227;46.752;23.576;2024-02-15T06:38:55;97051.21;;;-1.52;73.41
61357;BME280;47227;46.752;23.576;2024-02-15T06:41:42;97049.51;;;-1.50;73.51
61357;BME280;47227;46.752;23.576;2024-02-15T06:44:11;97051.04;;;-1.48;73.58
61357;BME280;47227;46.752;23.576;2024-02-15T06:46:40;97056.77;;;-1.46;73.37
61357;BME280;47227;46.752;23.576;2024-02-15T06:49:09;97058.97;;;-1.44;73.18
61357;BME280;47227;46.752;23.576;2024-02-15T06:51:38;97060.55;;;-1.41;73.13
61357;BME280;47227;46.752;23.576;2024-02-15T06:54:07;97059.48;;;-1.39;73.25
61357;BME280;47227;46.752;23.576;2024-02-15T06:56:36;97061.36;;;-1.37;73.39
61357;BME280;47227;46.752;23.576;2024-02-15T06:59:06;97061.88;;;-1.35;73.45
61357;BME280;47227;46.752;23.576;2024-02-15T07:01:35;97062.33;;;-1.31;73.46
61357;BME280;47227;46.752;23.576;2024-02-15T07:04:04;97067.21;;;-1.25;73.27
61357;BME280;47227;46.752;23.576;2024-02-15T07:06:32;97065.86;;;-1.18;73.39
61357;BME280;47227;46.752;23.576;2024-02-15T07:09:01;97065.92;;;-1.11;73.41
61357;BME280;47227;46.752;23.576;2024-02-15T07:11:29;97066.88;;;-1.01;73.24
61357;BME280;47227;46.752;23.576;2024-02-15T07:13:58;97061.56;;;-0.94;73.14
61357;BME280;47227;46.752;23.576;2024-02-15T07:16:27;97057.20;;;-0.89;73.01
61357;BME280;47227;46.752;23.576;2024-02-15T07:18:56;97056.73;;;-0.80;72.93
61357;BME280;47227;46.752;23.576;2024-02-15T07:21:25;97054.50;;;-0.69;72.92
61357;BME280;47227;46.752;23.576;2024-02-15T07:23:57;97053.17;;;-0.56;72.80
61357;BME280;47227;46.752;23.576;2024-02-15T07:26:27;97052.63;;;-0.44;72.83
61357;BME280;47227;46.752;23.576;2024-02-15T07:28:55;97054.05;;;-0.34;72.45
61357;BME280;47227;46.752;23.576;2024-02-15T07:31:27;97055.13;;;-0.25;72.63
61357;BME280;47227;46.752;23.576;2024-02-15T07:33:57;97055.36;;;-0.17;72.55
61357;BME280;47227;46.752;23.576;2024-02-15T07:36:26;97054.48;;;-0.12;72.22
61357;BME280;47227;46.752;23.576;2024-02-15T07:38:55;97053.56;;;-0.08;72.08
61357;BME280;47227;46.752;23.576;2024-02-15T07:41:30;97053.50;;;-0.04;71.72
61357;BME280;47227;46.752;23.576;2024-02-15T07:44:02;97049.56;;;-0.03;71.52
61357;BME280;47227;46.752;23.576;2024-02-15T07:46:31;97046.77;;;-0.02;71.50
61357;BME280;47227;46.752;23.576;2024-02-15T07:49:01;97044.05;;;-0.01;71.36
61357;BME280;47227;46.752;23.576;2024-02-15T07:51:30;97042.21;;;0.00;71.35
61357;BME280;47227;46.752;23.576;2024-02-15T07:53:59;97043.02;;;0.01;71.29
61357;BME280;47227;46.752;23.576;2024-02-15T07:56:29;97040.48;;;0.02;71.27
61357;BME280;47227;46.752;23.576;2024-02-15T07:58:57;97038.29;;;0.04;71.09
61357;BME280;47227;46.752;23.576;2024-02-15T08:01:26;97038.90;;;0.04;71.19
61357;BME280;47227;46.752;23.576;2024-02-15T08:03:55;97040.33;;;0.05;71.03
61357;BME280;47227;46.752;23.576;2024-02-15T08:06:23;97044.55;;;0.06;70.96
61357;BME280;47227;46.752;23.576;2024-02-15T08:08:57;97047.29;;;0.08;70.81
61357;BME280;47227;46.752;23.576;2024-02-15T08:11:26;97047.23;;;0.10;70.77
61357;BME280;47227;46.752;23.576;2024-02-15T08:13:55;97051.09;;;0.12;70.92
61357;BME280;47227;46.752;23.576;2024-02-15T08:16:27;97051.17;;;0.16;70.93
61357;BME280;47227;46.752;23.576;2024-02-15T08:18:56;97054.02;;;0.20;70.81
61357;BME280;47227;46.752;23.576;2024-02-15T08:21:27;97054.50;;;0.24;70.83
61357;BME280;47227;46.752;23.576;2024-02-15T08:24:02;97056.49;;;0.30;70.65
61357;BME280;47227;46.752;23.576;2024-02-15T08:26:39;97056.33;;;0.34;70.58
61357;BME280;47227;46.752;23.576;2024-02-15T08:29:09;97056.05;;;0.38;70.53
61357;BME280;47227;46.752;23.576;2024-02-15T08:31:37;97057.95;;;0.43;70.39
61357;BME280;47227;46.752;23.576;2024-02-15T08:34:06;97051.36;;;0.49;70.34
61357;BME280;47227;46.752;23.576;2024-02-15T08:36:34;97051.38;;;0.55;70.31
61357;BME280;47227;46.752;23.576;2024-02-15T08:39:03;97051.20;;;0.63;70.23
61357;BME280;47227;46.752;23.576;2024-02-15T08:41:33;97048.40;;;0.72;70.12
61357;BME280;47227;46.752;23.576;2024-02-15T08:44:03;97046.87;;;0.79;69.91
61357;BME280;47227;46.752;23.576;2024-02-15T08:46:37;97042.80;;;0.88;69.67
61357;BME280;47227;46.752;23.576;2024-02-15T08:49:05;97045.94;;;0.97;69.75
61357;BME280;47227;46.752;23.576;2024-02-15T08:51:34;97046.64;;;1.05;69.77
61357;BME280;47227;46.752;23.576;2024-02-15T08:54:04;97049.71;;;1.13;69.47
61357;BME280;47227;46.752;23.576;2024-02-15T08:56:35;97052.23;;;1.22;68.80
61357;BME280;47227;46.752;23.576;2024-02-15T08:59:04;97055.07;;;1.29;68.96
61357;BME280;47227;46.752;23.576;2024-02-15T09:01:32;97057.84;;;1.36;68.73
61357;BME280;47227;46.752;23.576;2024-02-15T09:04:02;97057.06;;;1.43;68.71
61357;BME280;47227;46.752;23.576;2024-02-15T09:06:31;97057.69;;;1.53;67.59
61357;BME280;47227;46.752;23.576;2024-02-15T09:09:00;97062.33;;;1.61;67.96
61357;BME280;47227;46.752;23.576;2024-02-15T09:11:31;97062.34;;;1.66;68.04
61357;BME280;47227;46.752;23.576;2024-02-15T09:14:00;97060.59;;;1.71;68.06
61357;BME280;47227;46.752;23.576;2024-02-15T09:16:28;97063.02;;;1.77;66.43
61357;BME280;47227;46.752;23.576;2024-02-15T09:18:57;97061.47;;;1.85;67.21
61357;BME280;47227;46.752;23.576;2024-02-15T09:21:29;97063.23;;;1.92;67.17
61357;BME280;47227;46.752;23.576;2024-02-15T09:23:58;97064.05;;;2.00;66.07
61357;BME280;47227;46.752;23.576;2024-02-15T09:26:26;97063.88;;;2.07;66.65
61357;BME280;47227;46.752;23.576;2024-02-15T09:28:56;97059.16;;;2.12;66.60
61357;BME280;47227;46.752;23.576;2024-02-15T09:31:24;97058.70;;;2.20;66.82
61357;BME280;47227;46.752;23.576;2024-02-15T09:33:53;97057.36;;;2.27;66.81
61357;BME280;47227;46.752;23.576;2024-02-15T09:36:23;97057.12;;;2.37;66.26
61357;BME280;47227;46.752;23.576;2024-02-15T09:38:51;97055.32;;;2.48;66.40
61357;BME280;47227;46.752;23.576;2024-02-15T09:41:20;97055.00;;;2.58;66.20
61357;BME280;47227;46.752;23.576;2024-02-15T09:43:48;97054.56;;;2.66;66.05
61357;BME280;47227;46.752;23.576;2024-02-15T09:46:17;97051.81;;;2.78;64.63
61357;BME280;47227;46.752;23.576;2024-02-15T09:48:50;97051.19;;;2.88;65.58
61357;BME280;47227;46.752;23.576;2024-02-15T09:51:20;97049.62;;;2.97;64.35
61357;BME280;47227;46.752;23.576;2024-02-15T09:53:49;97046.27;;;3.06;64.73
61357;BME280;47227;46.752;23.576;2024-02-15T09:56:18;97047.92;;;3.17;64.78
61357;BME280;47227;46.752;23.576;2024-02-15T09:58:47;97045.22;;;3.31;64.18
61357;BME280;47227;46.752;23.576;2024-02-15T10:01:19;97044.84;;;3.43;63.91
61357;BME280;47227;46.752;23.576;2024-02-15T10:03:50;97037.90;;;3.58;62.49
61357;BME280;47227;46.752;23.576;2024-02-15T10:06:22;97032.52;;;3.71;61.85
61357;BME280;47227;46.752;23.576;2024-02-15T10:08:51;97028.09;;;3.88;62.66
61357;BME280;47227;46.752;23.576;2024-02-15T10:11:19;97028.13;;;4.06;63.10
61357;BME280;47227;46.752;23.576;2024-02-15T10:13:49;97029.76;;;4.35;62.65
61357;BME280;47227;46.752;23.576;2024-02-15T10:16:19;97026.41;;;5.24;63.40
61357;BME280;47227;46.752;23.576;2024-02-15T10:18:48;97015.84;;;7.72;59.74
61357;BME280;47227;46.752;23.576;2024-02-15T10:21:25;97009.66;;;10.44;62.67
61357;BME280;47227;46.752;23.576;2024-02-15T10:24:08;96999.84;;;13.20;58.35
61357;BME280;47227;46.752;23.576;2024-02-15T10:26:37;97001.44;;;15.57;46.47
61357;BME280;47227;46.752;23.576;2024-02-15T10:29:10;97002.77;;;17.07;43.73
61357;BME280;47227;46.752;23.576;2024-02-15T10:31:40;97008.02;;;18.50;45.14
61357;BME280;47227;46.752;23.576;2024-02-15T10:34:13;97003.25;;;19.86;42.82
61357;BME280;47227;46.752;23.576;2024-02-15T10:36:42;97002.23;;;20.97;41.50
61357;BME280;47227;46.752;23.576;2024-02-15T10:39:15;97005.86;;;21.89;39.85
61357;BME280;47227;46.752;23.576;2024-02-15T10:41:50;97004.52;;;22.86;35.65
61357;BME280;47227;46.752;23.576;2024-02-15T10:44:21;97006.01;;;23.56;34.49
61357;BME280;47227;46.752;23.576;2024-02-15T10:46:51;97007.12;;;24.12;28.12
61357;BME280;47227;46.752;23.576;2024-02-15T10:49:22;97006.55;;;24.58;29.20
61357;BME280;47227;46.752;23.576;2024-02-15T10:51:58;97004.13;;;25.12;32.78
61357;BME280;47227;46.752;23.576;2024-02-15T10:57:21;97006.02;;;25.71;26.38
61357;BME280;47227;46.752;23.576;2024-02-15T10:59:56;97007.61;;;26.02;23.47
61357;BME280;47227;46.752;23.576;2024-02-15T11:02:37;97008.73;;;25.91;20.22
61357;BME280;47227;46.752;23.576;2024-02-15T11:05:07;97006.91;;;25.52;21.94
61357;BME280;47227;46.752;23.576;2024-02-15T11:07:40;97008.70;;;26.05;22.66
61357;BME280;47227;46.752;23.576;2024-02-15T11:10:10;97005.86;;;26.44;20.30
61357;BME280;47227;46.752;23.576;2024-02-15T11:12:40;97010.91;;;26.66;20.13
61357;BME280;47227;46.752;23.576;2024-02-15T11:18:04;97005.38;;;26.01;19.58
61357;BME280;47227;46.752;23.576;2024-02-15T11:23:03;97001.76;;;26.73;20.18
61357;BME280;47227;46.752;23.576;2024-02-15T11:28:36;97002.65;;;27.83;18.68
61357;BME280;47227;46.752;23.576;2024-02-15T11:31:09;96999.56;;;27.40;16.81
61357;BME280;47227;46.752;23.576;2024-02-15T11:33:38;96996.71;;;27.47;18.61
61357;BME280;47227;46.752;23.576;2024-02-15T11:36:12;96999.88;;;28.17;19.62
61357;BME280;47227;46.752;23.576;2024-02-15T11:38:41;96995.69;;;28.59;19.14
61357;BME280;47227;46.752;23.576;2024-02-15T11:41:17;96988.36;;;28.99;18.83
61357;BME280;47227;46.752;23.576;2024-02-15T11:43:48;96988.73;;;28.59;16.17
61357;BME280;47227;46.752;23.576;2024-02-15T11:46:18;96983.64;;;28.38;19.44
61357;BME280;47227;46.752;23.576;2024-02-15T11:48:48;96982.03;;;28.06;16.69
61357;BME280;47227;46.752;23.576;2024-02-15T11:51:34;96977.24;;;26.93;15.98
61357;BME280;47227;46.752;23.576;2024-02-15T11:54:12;96975.70;;;26.06;19.02
61357;BME280;47227;46.752;23.576;2024-02-15T11:59:17;96972.58;;;24.18;19.09
61357;BME280;47227;46.752;23.576;2024-02-15T12:02:03;96972.33;;;23.32;20.59
61357;BME280;47227;46.752;23.576;2024-02-15T12:04:50;96969.24;;;22.81;21.41
61357;BME280;47227;46.752;23.576;2024-02-15T12:07:37;96960.42;;;22.38;21.48
61357;BME280;47227;46.752;23.576;2024-02-15T12:10:24;96960.52;;;21.85;21.61
61357;BME280;47227;46.752;23.576;2024-02-15T12:13:17;96951.23;;;21.10;20.99
61357;BME280;47227;46.752;23.576;2024-02-15T12:16:15;96944.35;;;20.63;22.50
61357;BME280;47227;46.752;23.576;2024-02-15T12:19:02;96943.77;;;20.32;22.71
61357;BME280;47227;46.752;23.576;2024-02-15T12:21:32;96939.25;;;20.06;22.21
61357;BME280;47227;46.752;23.576;2024-02-15T12:24:02;96939.02;;;19.65;21.44
61357;BME280;47227;46.752;23.576;2024-02-15T12:26:34;96940.48;;;18.65;21.42
61357;BME280;47227;46.752;23.576;2024-02-15T12:29:03;96938.23;;;18.10;22.34
61357;BME280;47227;46.752;23.576;2024-02-15T12:31:35;96932.29;;;18.13;23.00
61357;BME280;47227;46.752;23.576;2024-02-15T12:34:06;96933.70;;;18.13;23.31
61357;BME280;47227;46.752;23.576;2024-02-15T12:36:37;96933.46;;;18.17;23.80
61357;BME280;47227;46.752;23.576;2024-02-15T12:39:07;96932.41;;;18.04;22.47
61357;BME280;47227;46.752;23.576;2024-02-15T12:41:41;96932.16;;;17.72;21.93
61357;BME280;47227;46.752;23.576;2024-02-15T12:44:10;96931.99;;;17.48;22.93
61357;BME280;47227;46.752;23.576;2024-02-15T12:46:39;96928.48;;;17.32;22.74
61357;BME280;47227;46.752;23.576;2024-02-15T12:49:32;96924.75;;;17.15;23.33
61357;BME280;47227;46.752;23.576;2024-02-15T12:52:38;96918.39;;;17.24;23.44
61357;BME280;47227;46.752;23.576;2024-02-15T12:55:22;96918.78;;;17.32;22.47
61357;BME280;47227;46.752;23.576;2024-02-15T12:57:54;96921.27;;;17.39;23.20
61357;BME280;47227;46.752;23.576;2024-02-15T13:00:26;96911.27;;;16.91;21.95
61357;BME280;47227;46.752;23.576;2024-02-15T13:03:04;96909.83;;;16.53;22.58
61357;BME280;47227;46.752;23.576;2024-02-15T13:05:33;96913.05;;;16.56;23.85
61357;BME280;47227;46.752;23.576;2024-02-15T13:08:02;96911.09;;;16.70;24.04
61357;BME280;47227;46.752;23.576;2024-02-15T13:10:31;96909.91;;;16.82;24.25
61357;BME280;47227;46.752;23.576;2024-02-15T13:13:00;96909.59;;;16.95;24.21
61357;BME280;47227;46.752;23.576;2024-02-15T13:15:29;96911.05;;;16.98;22.99
61357;BME280;47227;46.752;23.576;2024-02-15T13:18:03;96905.80;;;16.86;22.42
61357;BME280;47227;46.752;23.576;2024-02-15T13:20:33;96907.23;;;16.66;22.42
61357;BME280;47227;46.752;23.576;2024-02-15T13:23:10;96907.36;;;16.61;23.28
61357;BME280;47227;46.752;23.576;2024-02-15T13:25:51;96903.67;;;16.56;22.76
61357;BME280;47227;46.752;23.576;2024-02-15T13:28:20;96905.34;;;16.47;23.32